Time;durP1;ratioP1;P1;durP2;ratioP2;P2;SDS_P1;SDS_P2;PMS_P1;PMS_P2;Temp;Humidity;BMP_temperature;BMP_pressure;BME280_temperature;BME280_humidity;BME280_pressure;Samples;Min_cycle;Max_cycle;Signal;HPM_P1;HPM_P2
2022/03/05 00:01:53;;;;;;;21.20;9.68;;;-3.00;99.90;;;;;;5092652;28;20091;-75
2022/03/05 00:04:19;;;;;;;20.75;9.00;;;-3.00;99.90;;;;;;5091069;28;20031;-75
2022/03/05 00:06:44;;;;;;;24.10;10.15;;;-3.00;99.90;;;;;;5092407;28;20028;-75
2022/03/05 00:09:10;;;;;;;17.77;8.23;;;-3.10;99.90;;;;;;5092274;28;20085;-78
2022/03/05 00:11:35;;;;;;;18.52;8.80;;;-3.10;99.90;;;;;;5092247;28;20103;-77
2022/03/05 00:14:01;;;;;;;22.27;10.32;;;-3.10;99.90;;;;;;5092219;28;20040;-75
2022/03/05 00:16:27;;;;;;;18.38;9.68;;;-3.10;99.90;;;;;;5091943;28;20028;-77
2022/03/05 00:18:52;;;;;;;23.52;10.13;;;-3.10;99.90;;;;;;5092312;28;20031;-75
2022/03/05 00:21:18;;;;;;;15.90;8.95;;;-3.20;99.90;;;;;;5090983;28;20535;-74
2022/03/05 00:23:44;;;;;;;19.00;9.18;;;-3.20;99.90;;;;;;5092342;28;20035;-75
2022/03/05 00:26:12;;;;;;;18.10;8.30;;;-3.20;99.90;;;;;;5092073;28;20027;-74
2022/03/05 00:28:37;;;;;;;17.30;8.95;;;-3.20;99.90;;;;;;5092285;28;20463;-75
2022/03/05 00:31:03;;;;;;;17.90;9.00;;;-3.40;99.90;;;;;;5090818;28;20042;-76
2022/03/05 00:33:29;;;;;;;19.40;8.70;;;-3.30;99.90;;;;;;5092192;28;20101;-75
2022/03/05 00:35:55;;;;;;;16.67;8.40;;;-3.30;99.90;;;;;;5090700;28;20383;-74
2022/03/05 00:38:21;;;;;;;16.05;8.70;;;-3.30;99.90;;;;;;5091824;28;20020;-75
2022/03/05 00:40:47;;;;;;;24.63;9.60;;;-3.30;99.90;;;;;;5094800;28;20024;-74
2022/03/05 00:43:14;;;;;;;16.88;9.10;;;-3.30;99.90;;;;;;5095777;28;20086;-74
2022/03/05 00:45:40;;;;;;;20.90;9.10;;;-3.30;99.90;;;;;;5095694;28;20509;-75
2022/03/05 00:48:05;;;;;;;20.75;9.20;;;-3.30;99.90;;;;;;5094447;28;20032;-74
2022/03/05 00:50:31;;;;;;;18.25;8.98;;;-3.30;99.90;;;;;;5095895;28;20093;-74
2022/03/05 00:52:57;;;;;;;18.42;9.43;;;-3.40;99.90;;;;;;5094491;28;20082;-75
2022/03/05 00:55:23;;;;;;;15.68;7.63;;;-3.40;99.90;;;;;;5095585;28;20024;-75
2022/03/05 00:57:48;;;;;;;14.88;7.63;;;-3.40;99.90;;;;;;5095577;28;20034;-75
2022/03/05 01:00:14;;;;;;;17.48;8.48;;;-3.40;99.90;;;;;;5095587;28;20051;-75
2022/03/05 01:02:40;;;;;;;18.23;8.00;;;-3.40;99.90;;;;;;5094235;28;20056;-75
2022/03/05 01:05:07;;;;;;;14.73;7.57;;;-3.40;99.90;;;;;;5093996;28;20020;-74
2022/03/05 01:07:33;;;;;;;15.70;7.82;;;-3.40;99.90;;;;;;5095500;28;20020;-74
2022/03/05 01:09:58;;;;;;;13.15;7.43;;;-3.40;99.90;;;;;;5095400;28;20032;-75
2022/03/05 01:12:24;;;;;;;13.85;7.00;;;-3.40;99.90;;;;;;5095156;28;20020;-75
2022/03/05 01:14:50;;;;;;;13.00;7.30;;;-3.30;99.90;;;;;;5095315;28;20051;-75
2022/03/05 01:17:16;;;;;;;11.95;6.30;;;-2.30;99.90;;;;;;5095073;28;20024;-74
2022/03/05 01:19:42;;;;;;;15.68;6.95;;;-3.30;99.90;;;;;;5094994;28;20020;-76
2022/03/05 01:22:07;;;;;;;17.50;9.07;;;-3.20;99.90;;;;;;5095140;28;20399;-75
2022/03/05 01:24:33;;;;;;;18.92;8.60;;;-3.20;99.90;;;;;;5094821;28;20471;-75
2022/03/05 01:26:59;;;;;;;19.25;9.63;;;-3.10;99.90;;;;;;5093616;28;20031;-75
2022/03/05 01:29:24;;;;;;;17.70;8.30;;;-3.10;99.90;;;;;;5095131;28;20024;-74
2022/03/05 01:31:50;;;;;;;21.65;8.88;;;-3.10;99.90;;;;;;5093312;28;20047;-75
2022/03/05 01:34:16;;;;;;;19.02;9.43;;;-3.10;99.90;;;;;;5094976;28;20043;-75
2022/03/05 01:36:41;;;;;;;17.30;8.50;;;-3.00;99.90;;;;;;5094575;28;20085;-76
2022/03/05 01:39:07;;;;;;;17.13;8.63;;;-2.90;99.90;;;;;;5094803;28;20047;-75
2022/03/05 01:41:33;;;;;;;18.73;9.98;;;-2.90;99.90;;;;;;5094777;28;20020;-74
2022/03/05 01:43:59;;;;;;;24.88;10.43;;;-2.90;99.90;;;;;;5094559;28;20077;-75
2022/03/05 01:46:37;;;;;;;16.92;9.02;;;-2.90;99.90;;;;;;5094542;28;20425;-74
2022/03/05 01:49:05;;;;;;;18.17;9.52;;;-2.90;99.90;;;;;;5093038;28;20027;-75
2022/03/05 01:51:31;;;;;;;22.05;9.80;;;-2.90;99.90;;;;;;5093273;28;20044;-74
2022/03/05 01:53:57;;;;;;;18.30;9.52;;;-2.80;99.90;;;;;;5094296;28;20475;-75
2022/03/05 01:56:24;;;;;;;17.58;9.32;;;-2.80;99.90;;;;;;5094357;28;20115;-74
2022/03/05 01:58:50;;;;;;;17.90;9.38;;;-2.80;99.90;;;;;;5092811;28;20102;-74
2022/03/05 02:01:16;;;;;;;17.92;9.70;;;-2.80;99.90;;;;;;5092796;28;20020;-76
2022/03/05 02:03:42;;;;;;;21.40;8.85;;;-2.80;99.90;;;;;;5094209;28;20101;-77
2022/03/05 02:06:10;;;;;;;19.02;9.13;;;-2.70;99.90;;;;;;5092738;28;20055;-77
2022/03/05 02:08:36;;;;;;;19.92;9.73;;;-2.70;99.90;;;;;;5094168;28;20069;-76
2022/03/05 02:11:01;;;;;;;23.17;8.98;;;-2.70;99.90;;;;;;5094155;28;20425;-75
2022/03/05 02:13:27;;;;;;;19.67;8.93;;;-2.70;99.90;;;;;;5092691;28;20016;-75
2022/03/05 02:15:54;;;;;;;18.95;9.30;;;-2.70;99.90;;;;;;5092546;28;20077;-75
2022/03/05 02:18:20;;;;;;;15.90;8.20;;;-2.60;99.90;;;;;;5092808;28;20062;-75
2022/03/05 02:20:45;;;;;;;21.10;10.68;;;-2.70;99.90;;;;;;5093882;28;20379;-75
2022/03/05 02:23:11;;;;;;;21.88;10.40;;;-2.70;99.90;;;;;;5093774;28;20031;-76
2022/03/05 02:25:37;;;;;;;19.15;9.55;;;-2.60;99.90;;;;;;5093946;28;20547;-76
2022/03/05 02:28:03;;;;;;;23.08;10.00;;;-2.60;99.90;;;;;;5093785;28;20622;-74
2022/03/05 02:30:29;;;;;;;18.05;8.20;;;-2.60;99.90;;;;;;5093766;28;20565;-74
2022/03/05 02:32:54;;;;;;;22.58;9.15;;;-2.60;99.90;;;;;;5093437;28;20044;-75
2022/03/05 02:35:20;;;;;;;23.33;9.65;;;-2.50;99.90;;;;;;5093466;28;20063;-75
2022/03/05 02:37:46;;;;;;;15.48;8.98;;;-2.40;99.90;;;;;;5093529;28;20055;-74
2022/03/05 02:40:12;;;;;;;18.63;8.73;;;-2.40;99.90;;;;;;5092390;28;20119;-74
2022/03/05 02:42:38;;;;;;;19.95;9.40;;;-2.40;99.90;;;;;;5093653;28;20024;-74
2022/03/05 02:45:04;;;;;;;20.20;9.15;;;-2.30;99.90;;;;;;5093431;28;20020;-77
2022/03/05 02:47:29;;;;;;;17.17;8.77;;;-2.30;99.90;;;;;;5093541;28;20036;-74
2022/03/05 02:49:55;;;;;;;17.65;8.63;;;-2.30;99.90;;;;;;5093442;28;20027;-75
2022/03/05 02:52:21;;;;;;;17.50;8.82;;;-2.20;99.90;;;;;;5093246;28;20085;-76
2022/03/05 02:54:46;;;;;;;16.90;8.55;;;-2.20;99.90;;;;;;5093040;28;20043;-74
2022/03/05 02:57:12;;;;;;;16.30;7.75;;;-2.20;99.90;;;;;;5093302;28;20374;-74
2022/03/05 02:59:38;;;;;;;15.85;8.70;;;-2.20;99.90;;;;;;5093110;28;20438;-75
2022/03/05 03:02:03;;;;;;;21.63;7.90;;;-2.20;99.90;;;;;;5092810;28;20040;-75
2022/03/05 03:04:29;;;;;;;13.93;7.85;;;-2.10;99.90;;;;;;5091648;28;20479;-75
2022/03/05 03:06:54;;;;;;;16.88;8.27;;;-2.10;99.90;;;;;;5091724;28;20055;-75
2022/03/05 03:09:20;;;;;;;18.42;8.60;;;-2.10;99.90;;;;;;5092879;28;20069;-75
2022/03/05 03:11:46;;;;;;;14.02;8.45;;;-2.10;99.90;;;;;;5093118;28;20027;-75
2022/03/05 03:14:11;;;;;;;17.67;8.57;;;-2.10;99.90;;;;;;5092624;28;20031;-75
2022/03/05 03:16:37;;;;;;;17.48;8.32;;;-2.10;99.90;;;;;;5092798;28;20035;-74
2022/03/05 03:19:02;;;;;;;18.77;8.90;;;-2.10;99.90;;;;;;5092683;28;20107;-74
2022/03/05 03:21:28;;;;;;;17.80;9.23;;;-2.10;99.90;;;;;;5092705;28;20051;-75
2022/03/05 03:23:54;;;;;;;16.60;8.30;;;-2.10;99.90;;;;;;5090413;28;20054;-75
2022/03/05 03:26:19;;;;;;;21.25;10.48;;;-2.10;99.90;;;;;;5091228;28;20035;-75
2022/03/05 03:28:45;;;;;;;19.33;9.48;;;-2.10;99.90;;;;;;5092516;28;20031;-76
2022/03/05 03:31:10;;;;;;;18.02;9.18;;;-2.10;99.90;;;;;;5092393;28;20039;-75
2022/03/05 03:33:36;;;;;;;19.13;8.48;;;-2.10;99.90;;;;;;5092537;28;20027;-76
2022/03/05 03:36:02;;;;;;;18.70;8.98;;;-2.10;99.90;;;;;;5092440;28;20051;-74
2022/03/05 03:38:28;;;;;;;19.20;9.50;;;-2.10;99.90;;;;;;5092678;28;20051;-75
2022/03/05 03:40:53;;;;;;;23.27;9.55;;;-2.10;99.90;;;;;;5092469;28;20031;-75
2022/03/05 03:43:19;;;;;;;21.60;10.73;;;-2.00;99.90;;;;;;5091240;28;20020;-75
2022/03/05 03:45:44;;;;;;;20.75;9.05;;;-2.00;99.90;;;;;;5092290;28;20023;-75
2022/03/05 03:48:10;;;;;;;19.83;9.57;;;-1.90;99.90;;;;;;5092323;28;20024;-75
2022/03/05 03:50:36;;;;;;;21.38;9.35;;;-1.70;99.90;;;;;;5092465;28;20471;-74
2022/03/05 03:53:02;;;;;;;18.20;9.13;;;-1.60;99.90;;;;;;5092409;28;20020;-75
2022/03/05 03:55:28;;;;;;;19.83;10.13;;;-1.50;99.90;;;;;;5092251;28;20028;-75
2022/03/05 03:57:53;;;;;;;21.35;10.43;;;-1.30;99.90;;;;;;5093607;28;20028;-74
2022/03/05 04:00:19;;;;;;;20.45;13.38;;;-1.20;99.90;;;;;;5095137;28;20028;-75
2022/03/05 04:02:45;;;;;;;20.15;9.40;;;-1.00;99.90;;;;;;5093206;28;20058;-76
2022/03/05 04:05:12;;;;;;;23.88;10.25;;;-0.90;99.90;;;;;;5093309;28;20028;-76
2022/03/05 04:10:22;;;;;;;20.20;9.25;;;-0.80;99.90;;;;;;5093068;28;20398;-77
2022/03/05 04:12:48;;;;;;;18.63;10.02;;;-0.80;99.90;;;;;;5092880;28;20024;-78
2022/03/05 04:15:13;;;;;;;22.33;11.02;;;-0.70;99.90;;;;;;5096541;28;20093;-76
2022/03/05 04:17:39;;;;;;;22.77;10.82;;;-0.70;99.90;;;;;;5096895;28;20028;-77
2022/03/05 04:20:09;;;;;;;17.85;9.68;;;-0.70;99.90;;;;;;5096811;28;20028;-78
2022/03/05 04:22:35;;;;;;;20.83;10.07;;;-0.60;99.90;;;;;;5096518;28;20020;-78
2022/03/05 04:25:04;;;;;;;17.75;9.80;;;-0.60;99.90;;;;;;5095622;28;20035;-76
2022/03/05 04:27:29;;;;;;;21.00;10.35;;;-0.60;99.90;;;;;;5096356;28;20059;-75
2022/03/05 04:29:55;;;;;;;21.85;10.25;;;-0.60;99.90;;;;;;5096279;28;20478;-74
2022/03/05 04:32:21;;;;;;;22.00;10.85;;;-0.60;99.90;;;;;;5096180;28;20040;-75
2022/03/05 04:34:46;;;;;;;23.20;11.40;;;-0.50;99.90;;;;;;5095799;28;20110;-77
2022/03/05 04:37:12;;;;;;;24.45;11.38;;;-0.50;99.90;;;;;;5095103;28;20101;-77
2022/03/05 04:39:38;;;;;;;23.10;11.57;;;-0.50;99.90;;;;;;5095975;28;20023;-74
2022/03/05 04:42:04;;;;;;;19.42;10.18;;;-0.50;99.90;;;;;;5095979;28;20024;-75
2022/03/05 04:44:29;;;;;;;19.63;10.55;;;-0.50;99.90;;;;;;5095621;28;20036;-77
2022/03/05 04:46:55;;;;;;;25.88;11.52;;;-0.50;99.90;;;;;;5094422;28;20094;-76
2022/03/05 04:49:21;;;;;;;25.02;11.52;;;-0.50;99.90;;;;;;5094798;28;20024;-76
2022/03/05 04:51:46;;;;;;;22.98;11.25;;;-0.50;99.90;;;;;;5094518;28;20462;-75
2022/03/05 04:54:12;;;;;;;22.33;11.95;;;-0.50;99.90;;;;;;5095818;28;20115;-77
2022/03/05 04:56:38;;;;;;;25.75;13.27;;;-0.50;99.90;;;;;;5095654;28;20099;-76
2022/03/05 04:59:04;;;;;;;20.75;12.23;;;-0.60;99.90;;;;;;5094276;28;20020;-75
2022/03/05 05:01:30;;;;;;;23.95;11.45;;;-0.60;99.90;;;;;;5094338;28;20016;-78
2022/03/05 05:03:56;;;;;;;23.65;12.75;;;-0.60;99.90;;;;;;5095563;28;20081;-76
2022/03/05 05:06:21;;;;;;;24.75;11.48;;;-0.60;99.90;;;;;;5094955;28;20038;-75
2022/03/05 05:08:47;;;;;;;21.38;11.20;;;-0.60;99.90;;;;;;5095338;28;20024;-75
2022/03/05 05:11:12;;;;;;;20.90;11.02;;;-0.60;99.90;;;;;;5094155;28;20066;-77
2022/03/05 05:13:39;;;;;;;20.88;9.57;;;-0.60;99.90;;;;;;5095567;28;20076;-76
2022/03/05 05:16:06;;;;;;;19.65;10.18;;;-0.60;99.90;;;;;;5094207;28;20032;-75
2022/03/05 05:18:33;;;;;;;23.83;10.60;;;-0.50;99.90;;;;;;5094303;28;20027;-77
2022/03/05 05:20:59;;;;;;;21.90;10.35;;;-0.50;99.90;;;;;;5095368;28;20028;-77
2022/03/05 05:23:24;;;;;;;19.23;9.70;;;-0.50;99.90;;;;;;5095491;28;20024;-77
2022/03/05 05:25:50;;;;;;;21.85;10.48;;;-0.50;99.90;;;;;;5095169;28;20031;-76
2022/03/05 05:28:16;;;;;;;22.58;10.32;;;-0.50;99.90;;;;;;5095114;28;20028;-74
2022/03/05 05:30:41;;;;;;;22.48;11.15;;;-0.40;99.90;;;;;;5095011;28;20020;-74
2022/03/05 05:33:07;;;;;;;19.30;11.20;;;-0.40;99.90;;;;;;5094846;28;20051;-76
2022/03/05 05:35:32;;;;;;;20.55;11.55;;;-0.40;99.90;;;;;;5094976;28;20036;-75
2022/03/05 05:37:58;;;;;;;21.45;10.88;;;-0.40;99.90;;;;;;5093735;28;20030;-75
2022/03/05 05:40:24;;;;;;;21.92;11.20;;;-0.40;99.90;;;;;;5094959;28;20050;-76
2022/03/05 05:42:49;;;;;;;23.10;11.63;;;-0.30;99.90;;;;;;5095098;28;20020;-77
2022/03/05 05:45:15;;;;;;;21.77;10.88;;;-0.40;99.90;;;;;;5093422;28;20024;-75
2022/03/05 05:47:41;;;;;;;24.85;11.65;;;0.30;99.90;;;;;;5093306;28;20409;-77
2022/03/05 05:50:08;;;;;;;25.38;13.15;;;-0.30;99.90;;;;;;5094627;28;20487;-75
2022/03/05 05:52:33;;;;;;;21.42;12.45;;;-0.30;99.90;;;;;;5094419;28;20016;-76
2022/03/05 05:54:59;;;;;;;24.35;12.02;;;-0.20;99.90;;;;;;5092978;28;20475;-76
2022/03/05 05:57:25;;;;;;;27.33;13.52;;;-0.30;99.90;;;;;;5094735;28;20375;-76
2022/03/05 05:59:51;;;;;;;45.70;24.25;;;-0.30;99.90;;;;;;5093051;28;20024;-76
2022/03/05 06:02:16;;;;;;;34.60;19.25;;;-0.30;99.90;;;;;;5094327;28;20086;-74
2022/03/05 06:04:42;;;;;;;46.63;32.42;;;-0.30;99.90;;;;;;5094178;28;20035;-76
2022/03/05 06:07:08;;;;;;;38.70;22.20;;;-0.40;99.90;;;;;;5092751;28;20509;-75
2022/03/05 06:09:33;;;;;;;34.45;19.55;;;-0.40;99.90;;;;;;5094297;28;20461;-75
2022/03/05 06:11:59;;;;;;;23.50;12.95;;;-0.40;99.90;;;;;;5094267;28;20359;-75
2022/03/05 06:14:25;;;;;;;23.00;11.90;;;-0.40;99.90;;;;;;5093865;28;20032;-76
2022/03/05 06:16:51;;;;;;;29.17;13.10;;;-0.50;99.90;;;;;;5094118;28;20028;-76
2022/03/05 06:19:16;;;;;;;14.75;8.00;;;-0.50;99.90;;;;;;5094307;28;20035;-77
2022/03/05 06:21:42;;;;;;;31.13;13.20;;;0.20;99.90;;;;;;5092867;28;20411;-75
2022/03/05 06:24:07;;;;;;;23.95;11.73;;;0.70;99.90;;;;;;5094228;28;20044;-75
2022/03/05 06:26:34;;;;;;;22.63;12.38;;;0.70;99.90;;;;;;5093426;28;20020;-77
2022/03/05 06:29:00;;;;;;;26.10;11.65;;;0.60;99.90;;;;;;5094216;28;20028;-76
2022/03/05 06:31:26;;;;;;;27.40;13.10;;;0.40;99.90;;;;;;5093584;28;20048;-79
2022/03/05 06:33:51;;;;;;;29.23;15.43;;;0.20;99.90;;;;;;5093031;28;20028;-79
2022/03/05 06:36:17;;;;;;;37.00;16.90;;;0.00;99.90;;;;;;5093593;28;20032;-75
2022/03/05 06:38:43;;;;;;;34.58;16.95;;;-0.10;99.90;;;;;;5093531;28;20078;-75
2022/03/05 06:41:08;;;;;;;31.08;15.00;;;-0.20;99.90;;;;;;5092086;28;20371;-75
2022/03/05 06:43:34;;;;;;;30.63;15.80;;;-0.30;99.90;;;;;;5092829;28;20020;-75
2022/03/05 06:45:59;;;;;;;42.38;19.75;;;-0.40;99.90;;;;;;5093263;28;20028;-75
2022/03/05 06:48:25;;;;;;;42.60;21.15;;;-0.40;99.90;;;;;;5093440;28;20031;-74
2022/03/05 06:50:51;;;;;;;40.92;19.75;;;-0.40;99.90;;;;;;5093365;28;20099;-75
2022/03/05 06:53:17;;;;;;;40.58;20.42;;;-0.40;99.90;;;;;;5092156;28;20024;-75
2022/03/05 06:55:42;;;;;;;32.95;15.20;;;-0.30;99.90;;;;;;5093200;28;20089;-74
2022/03/05 06:58:08;;;;;;;27.85;14.93;;;-0.20;99.90;;;;;;5091996;28;20101;-75
2022/03/05 07:00:35;;;;;;;26.00;13.27;;;0.00;99.90;;;;;;5094208;28;20103;-78
2022/03/05 07:03:00;;;;;;;24.70;12.65;;;0.10;99.90;;;;;;5095990;28;20028;-75
2022/03/05 07:05:26;;;;;;;26.67;12.70;;;0.30;99.90;;;;;;5091692;28;20363;-78
2022/03/05 07:07:51;;;;;;;24.50;12.30;;;0.50;99.90;;;;;;5093701;28;20023;-77
2022/03/05 07:10:17;;;;;;;23.30;12.95;;;0.60;99.90;;;;;;5093324;28;20078;-76
2022/03/05 07:12:43;;;;;;;23.23;13.18;;;0.80;99.90;;;;;;5092077;28;20028;-76
2022/03/05 07:15:09;;;;;;;22.55;12.98;;;0.90;99.90;;;;;;5093180;28;20044;-76
2022/03/05 07:17:34;;;;;;;25.90;12.70;;;1.00;99.90;;;;;;5093230;28;20056;-76
2022/03/05 07:20:00;;;;;;;18.75;11.32;;;1.00;99.90;;;;;;5091839;28;20403;-79
2022/03/05 07:22:26;;;;;;;20.77;11.10;;;1.20;99.90;;;;;;5093361;28;20020;-78
2022/03/05 07:24:52;;;;;;;22.05;12.00;;;1.30;99.90;;;;;;5093142;28;20107;-77
2022/03/05 07:27:17;;;;;;;22.42;11.38;;;1.40;99.90;;;;;;5093245;28;20024;-78
2022/03/05 07:29:43;;;;;;;22.98;12.90;;;1.40;99.90;;;;;;5093080;28;20020;-75
2022/03/05 07:32:10;;;;;;;27.88;14.23;;;1.60;99.90;;;;;;5092895;28;20050;-75
2022/03/05 07:34:36;;;;;;;22.75;12.45;;;1.70;99.90;;;;;;5092759;28;20093;-75
2022/03/05 07:37:02;;;;;;;23.70;12.27;;;1.80;99.90;;;;;;5093242;28;20020;-77
2022/03/05 07:39:28;;;;;;;25.70;12.55;;;2.00;99.80;;;;;;5091812;28;20428;-76
2022/03/05 07:41:54;;;;;;;25.65;13.15;;;2.00;99.00;;;;;;5093042;28;20103;-77
2022/03/05 07:44:20;;;;;;;22.48;12.35;;;2.20;99.30;;;;;;5092063;28;20913;-74
2022/03/05 07:46:46;;;;;;;27.90;14.38;;;2.30;98.50;;;;;;5092868;28;20024;-77
2022/03/05 07:49:11;;;;;;;22.85;12.38;;;2.80;98.00;;;;;;5091986;28;20425;-75
2022/03/05 07:51:37;;;;;;;26.70;12.60;;;2.30;97.70;;;;;;5091424;28;20093;-77
2022/03/05 07:54:04;;;;;;;19.48;12.45;;;2.40;97.70;;;;;;5091147;28;20032;-76
2022/03/05 07:56:30;;;;;;;23.08;13.20;;;2.40;97.30;;;;;;5091567;28;20047;-75
2022/03/05 07:58:55;;;;;;;24.83;13.05;;;2.40;97.20;;;;;;5093044;28;20055;-78
2022/03/05 08:01:21;;;;;;;21.85;12.05;;;2.50;97.20;;;;;;5092770;28;20505;-78
2022/03/05 08:03:47;;;;;;;20.50;12.82;;;2.50;96.80;;;;;;5092618;28;20030;-78
2022/03/05 08:06:12;;;;;;;26.10;13.93;;;2.60;96.80;;;;;;5092469;28;20016;-76
2022/03/05 08:08:38;;;;;;;30.60;16.83;;;2.60;96.70;;;;;;5091179;28;20055;-75
2022/03/05 08:11:04;;;;;;;30.80;16.08;;;2.80;96.40;;;;;;5092252;28;20069;-74
2022/03/05 08:13:30;;;;;;;27.00;15.70;;;2.90;96.10;;;;;;5092307;28;20028;-77
2022/03/05 08:15:56;;;;;;;28.30;14.70;;;2.70;96.00;;;;;;5092380;28;20042;-75
2022/03/05 08:18:21;;;;;;;25.67;14.13;;;2.90;95.70;;;;;;5092132;28;20107;-75
2022/03/05 08:20:47;;;;;;;23.27;12.88;;;2.90;95.20;;;;;;5092609;28;20123;-74
2022/03/05 08:23:13;;;;;;;27.25;14.32;;;3.40;95.40;;;;;;5092499;28;20426;-75
2022/03/05 08:25:39;;;;;;;29.85;13.98;;;3.10;94.60;;;;;;5091928;28;20610;-76
2022/03/05 08:28:04;;;;;;;27.23;14.95;;;3.10;94.50;;;;;;5091186;28;20028;-75
2022/03/05 08:30:30;;;;;;;27.08;15.00;;;3.10;94.40;;;;;;5091185;28;20031;-75
2022/03/05 08:32:56;;;;;;;27.38;14.55;;;3.20;94.60;;;;;;5092969;28;20141;-79
2022/03/05 08:35:21;;;;;;;30.85;15.13;;;3.20;94.50;;;;;;5092900;28;20432;-76
2022/03/05 08:37:48;;;;;;;27.20;14.02;;;3.20;94.70;;;;;;5091805;28;20041;-79
2022/03/05 08:40:15;;;;;;;25.55;14.25;;;4.00;94.40;;;;;;5091721;28;20467;-77
2022/03/05 08:42:42;;;;;;;26.58;15.18;;;3.40;94.30;;;;;;5092708;28;20063;-78
2022/03/05 08:45:09;;;;;;;28.85;15.27;;;3.50;94.50;;;;;;5092964;28;20024;-79
2022/03/05 08:47:35;;;;;;;29.15;15.35;;;3.60;93.90;;;;;;5091579;28;20024;-78
2022/03/05 08:50:01;;;;;;;29.23;14.45;;;3.60;93.70;;;;;;5091375;28;20028;-77
2022/03/05 08:52:29;;;;;;;27.13;14.80;;;3.70;93.90;;;;;;5092753;28;20027;-77
2022/03/05 08:54:55;;;;;;;27.98;15.60;;;4.00;93.50;;;;;;5091871;28;20032;-78
2022/03/05 08:57:20;;;;;;;22.77;13.73;;;4.50;93.90;;;;;;5092209;28;20020;-78
2022/03/05 08:59:46;;;;;;;32.63;15.75;;;3.70;94.50;;;;;;5094217;28;20026;-80
2022/03/05 09:02:12;;;;;;;26.83;15.25;;;3.90;93.70;;;;;;5097124;28;20079;-81
2022/03/05 09:04:38;;;;;;;31.15;15.05;;;;;;;;;;5095682;28;20024;-82
2022/03/05 09:07:03;;;;;;;27.60;14.68;;;4.00;91.60;;;;;;5096924;28;20065;-79
2022/03/05 09:09:29;;;;;;;24.58;13.15;;;4.00;91.70;;;;;;5097029;28;20794;-80
2022/03/05 09:11:55;;;;;;;25.40;13.30;;;3.90;92.40;;;;;;5101792;28;20034;-80
2022/03/05 09:14:21;;;;;;;25.17;13.30;;;3.70;92.20;;;;;;5098837;28;20040;-81
2022/03/05 09:16:47;;;;;;;27.23;13.55;;;3.80;92.20;;;;;;5100646;28;20028;-79
2022/03/05 09:19:13;;;;;;;24.30;12.45;;;3.80;92.30;;;;;;5100996;28;20099;-81
2022/03/05 09:21:38;;;;;;;19.88;10.90;;;3.80;92.40;;;;;;5099272;28;20016;-81
2022/03/05 09:24:05;;;;;;;22.70;14.30;;;3.70;92.70;;;;;;5098595;28;20482;-80
2022/03/05 09:26:32;;;;;;;23.95;13.40;;;3.60;92.60;;;;;;5097686;28;20054;-78
2022/03/05 09:28:57;;;;;;;25.38;13.77;;;3.60;92.90;;;;;;5098469;28;20020;-80
2022/03/05 09:31:23;;;;;;;25.02;13.82;;;3.60;93.30;;;;;;5104586;28;20497;-84
2022/03/05 09:33:49;;;;;;;25.75;13.50;;;3.60;92.80;;;;;;5105885;28;20115;-82
2022/03/05 09:36:15;;;;;;;27.27;15.57;;;3.50;93.00;;;;;;5104566;28;20352;-82
2022/03/05 09:38:40;;;;;;;30.83;14.65;;;3.50;93.10;;;;;;5097743;28;20024;-80
2022/03/05 09:41:07;;;;;;;27.27;15.10;;;3.50;93.30;;;;;;5097018;28;20437;-81
2022/03/05 09:43:34;;;;;;;26.05;14.07;;;3.40;91.90;;;;;;5095807;28;20028;-81
2022/03/05 09:46:01;;;;;;;25.90;14.10;;;3.40;91.90;;;;;;5096933;28;20051;-80
2022/03/05 09:48:28;;;;;;;23.48;12.30;;;3.50;92.00;;;;;;5095687;28;20102;-81
2022/03/05 09:50:54;;;;;;;26.15;13.90;;;3.60;92.90;;;;;;5095071;28;20024;-79
2022/03/05 09:53:23;;;;;;;27.35;14.98;;;3.80;91.50;;;;;;5095060;28;20027;-80
2022/03/05 09:55:49;;;;;;;32.03;16.85;;;3.80;91.10;;;;;;5096242;28;20032;-80
2022/03/05 09:58:16;;;;;;;28.05;17.15;;;3.80;91.40;;;;;;5097094;28;20012;-80
2022/03/05 10:00:43;;;;;;;23.95;13.23;;;4.00;91.20;;;;;;5096379;28;20024;-78
2022/03/05 10:03:12;;;;;;;27.02;14.02;;;4.00;90.50;;;;;;5096341;28;20053;-82
2022/03/05 10:05:38;;;;;;;28.90;13.43;;;4.00;90.60;;;;;;5095025;28;20115;-80
2022/03/05 10:08:15;;;;;;;26.05;15.32;;;4.10;90.20;;;;;;5094910;28;20098;-81
2022/03/05 10:10:45;;;;;;;29.17;15.50;;;4.00;90.00;;;;;;5096003;28;20084;-81
2022/03/05 10:13:28;;;;;;;31.52;15.23;;;4.20;90.10;;;;;;5094291;28;20098;-80
2022/03/05 10:15:59;;;;;;;31.33;15.45;;;4.30;88.80;;;;;;5095453;28;20085;-79
2022/03/05 10:18:37;;;;;;;25.35;14.02;;;4.30;88.60;;;;;;5094129;28;20032;-79
2022/03/05 10:21:06;;;;;;;24.33;14.02;;;4.40;88.70;;;;;;5094278;28;20417;-77
2022/03/05 10:23:37;;;;;;;26.65;14.60;;;4.20;88.60;;;;;;5093862;28;20020;-79
2022/03/05 10:26:07;;;;;;;27.00;15.02;;;4.20;89.30;;;;;;5094074;28;20474;-79
2022/03/05 10:28:34;;;;;;;32.60;17.00;;;4.10;88.60;;;;;;5093902;28;20035;-82
2022/03/05 10:31:07;;;;;;;54.35;24.63;;;4.10;88.90;;;;;;5095803;28;20020;-79
2022/03/05 10:33:40;;;;;;;48.13;20.70;;;4.10;89.10;;;;;;5095866;28;20063;-81
2022/03/05 10:36:16;;;;;;;32.08;15.85;;;4.10;88.90;;;;;;5096073;28;20085;-80
2022/03/05 10:38:52;;;;;;;;;;;4.10;88.90;;;;;;5093997;28;20111;-80
2022/03/05 10:41:32;;;;;;;26.10;14.50;;;4.20;88.50;;;;;;5094481;28;20317;-80
2022/03/05 10:44:11;;;;;;;22.08;12.93;;;4.40;87.50;;;;;;5094619;28;20032;-81
2022/03/05 10:46:46;;;;;;;23.85;12.90;;;4.30;87.40;;;;;;5093125;28;20024;-80
2022/03/05 10:49:20;;;;;;;25.45;14.50;;;4.30;86.40;;;;;;5093279;28;20027;-79
2022/03/05 10:51:50;;;;;;;24.35;13.48;;;4.20;87.40;;;;;;5094434;28;20475;-81
2022/03/05 10:54:39;;;;;;;27.27;14.65;;;4.10;88.30;;;;;;5093931;28;20048;-80
2022/03/05 10:57:16;;;;;;;30.02;14.95;;;4.10;88.90;;;;;;5093944;28;20020;-79
2022/03/05 10:59:47;;;;;;;26.83;14.27;;;4.20;89.00;;;;;;5093634;28;20154;-79
2022/03/05 11:02:15;;;;;;;26.85;15.25;;;4.30;88.70;;;;;;5093776;28;20043;-80
2022/03/05 11:04:45;;;;;;;24.40;14.02;;;4.30;88.30;;;;;;5094429;28;20609;-82
2022/03/05 11:07:12;;;;;;;27.42;14.10;;;4.30;87.80;;;;;;5093492;28;20012;-80
2022/03/05 11:09:39;;;;;;;25.17;13.75;;;4.40;86.60;;;;;;5094707;28;20352;-82
2022/03/05 11:12:09;;;;;;;25.63;14.73;;;4.50;86.40;;;;;;5093730;28;20103;-80
2022/03/05 11:14:36;;;;;;;28.65;15.52;;;4.60;86.00;;;;;;5093384;28;20540;-80
2022/03/05 11:17:04;;;;;;;28.25;15.02;;;4.70;86.40;;;;;;5093584;28;20024;-82
2022/03/05 11:19:30;;;;;;;27.05;13.25;;;4.60;86.30;;;;;;5093471;28;20020;-81
2022/03/05 11:21:57;;;;;;;26.20;13.93;;;4.70;85.60;;;;;;5093379;28;20747;-79
2022/03/05 11:24:24;;;;;;;26.45;14.48;;;4.60;84.80;;;;;;5094208;28;20471;-81
2022/03/05 11:26:52;;;;;;;29.75;15.57;;;4.60;85.40;;;;;;5093092;28;20076;-82
2022/03/05 11:29:25;;;;;;;28.02;15.18;;;4.50;85.40;;;;;;5092836;28;20436;-82
2022/03/05 11:31:51;;;;;;;27.27;14.25;;;4.40;85.60;;;;;;5092231;28;20047;-78
2022/03/05 11:34:20;;;;;;;27.05;14.38;;;4.50;85.30;;;;;;5092140;28;20028;-81
2022/03/05 11:36:48;;;;;;;26.33;14.43;;;4.50;85.10;;;;;;5092554;28;20035;-84
2022/03/05 11:39:16;;;;;;;24.45;13.95;;;4.60;85.40;;;;;;5094089;28;20028;-82
2022/03/05 11:42:01;;;;;;;24.83;13.70;;;4.60;84.30;;;;;;5092526;28;20360;-81
2022/03/05 11:44:37;;;;;;;25.45;13.52;;;4.70;84.20;;;;;;5092196;28;20028;-81
2022/03/05 11:47:18;;;;;;;29.33;15.05;;;4.70;84.20;;;;;;5092749;28;20035;-79
2022/03/05 11:49:59;;;;;;;22.45;12.98;;;4.60;84.20;;;;;;5093904;28;20020;-80
2022/03/05 11:52:40;;;;;;;24.48;13.00;;;4.50;84.30;;;;;;5092470;28;20020;-81
2022/03/05 11:55:15;;;;;;;26.75;14.52;;;4.30;84.30;;;;;;5092398;28;20036;-80
2022/03/05 11:57:52;;;;;;;27.23;15.20;;;4.20;84.80;;;;;;5091608;28;20028;-81
2022/03/05 12:00:25;;;;;;;27.27;14.55;;;4.20;86.00;;;;;;5091870;28;20020;-78
2022/03/05 12:02:55;;;;;;;31.25;14.48;;;4.10;87.60;;;;;;5091742;28;20016;-79
2022/03/05 12:05:36;;;;;;;22.23;12.93;;;4.00;87.60;;;;;;5091939;28;20467;-81
2022/03/05 12:08:06;;;;;;;24.90;13.05;;;4.20;87.40;;;;;;5092093;28;20028;-80
2022/03/05 12:10:34;;;;;;;24.60;13.07;;;4.20;87.10;;;;;;5091915;28;20466;-80
2022/03/05 12:13:01;;;;;;;18.13;10.35;;;4.10;87.50;;;;;;5093487;28;20093;-80
2022/03/05 12:15:35;;;;;;;18.15;9.60;;;4.00;86.90;;;;;;5091988;28;20139;-80
2022/03/05 12:18:02;;;;;;;16.00;9.02;;;4.00;85.90;;;;;;5092199;28;20028;-80
2022/03/05 12:20:34;;;;;;;15.88;7.15;;;4.20;85.40;;;;;;5092227;28;20024;-80
2022/03/05 12:23:08;;;;;;;14.20;7.85;;;4.50;83.90;;;;;;5092296;28;20043;-81
2022/03/05 12:25:39;;;;;;;14.70;7.85;;;4.60;82.30;;;;;;5091730;28;20107;-80
2022/03/05 12:28:11;;;;;;;12.32;7.28;;;4.50;81.80;;;;;;5092030;28;20042;-80
2022/03/05 12:30:38;;;;;;;14.52;6.97;;;4.60;80.50;;;;;;5092172;28;20024;-80
2022/03/05 12:33:15;;;;;;;13.23;6.32;;;4.60;79.30;;;;;;5092429;28;20064;-78
2022/03/05 12:35:47;;;;;;;12.48;7.10;;;4.50;78.40;;;;;;5095027;28;20036;-79
2022/03/05 12:38:20;;;;;;;16.02;8.20;;;4.30;80.60;;;;;;5095957;28;20028;-81